Dutchtown, Missouri
Current Conditions -  °F | °C
As of 3:08 PM on Sunday 23 Nov 2014 (Local Time) from KCGI Reporting Station
Moderate Rain Moderate Rain  
Wind Chill: 56°   Ceiling: 2200
Heat Index: 56°   Visibility: 2mi
Dew Point: 55°   Wind: 9mph
Humidity: 97%   Direction: 120°ESE
Pressure: 29.35"   Gusts: NA
Location:  37.25°N, 89.66°W
Report Text: KCGI 232108Z 12008KT 2SM RA BR FEW008 BKN022 OVC027 13/13 A2935 RMK AO2 P0005 T01330128
Loading
Personal Weather Stations






























Interactive Weather Map New forecast layout! Learn more

10-Day Weather Forecast

Advertisements
Track Severe Weather on mobile